createdAt,value
2023-05-24T00:00:13.764Z,8.93
2023-05-24T00:00:46.535Z,8.94
2023-05-24T00:01:27.384Z,8.93
2023-05-24T00:01:58.791Z,8.89
2023-05-24T00:02:30.279Z,8.88
2023-05-24T00:03:04.631Z,8.86
2023-05-24T00:03:39.473Z,8.87
2023-05-24T00:04:12.271Z,8.85
2023-05-24T00:04:45.276Z,8.84
2023-05-24T00:05:18.914Z,8.82
2023-05-24T00:05:50.459Z,8.83
2023-05-24T00:06:21.978Z,8.79
2023-05-24T00:06:55.052Z,8.80
2023-05-24T00:07:27.152Z,8.80
2023-05-24T00:07:59.262Z,8.78
2023-05-24T00:08:30.659Z,8.77
2023-05-24T00:09:02.176Z,8.76
2023-05-24T00:09:33.563Z,8.75
2023-05-24T00:10:06.520Z,8.74
2023-05-24T00:10:37.915Z,8.73
2023-05-24T00:11:10.963Z,8.72
2023-05-24T00:11:42.375Z,8.68
2023-05-24T00:12:13.828Z,8.69
2023-05-24T00:12:45.534Z,8.69
2023-05-24T00:13:17.035Z,8.67
2023-05-24T00:13:49.398Z,8.67
2023-05-24T00:14:20.878Z,8.65
2023-05-24T00:14:52.355Z,8.64
2023-05-24T00:15:23.792Z,8.65
2023-05-24T00:15:55.337Z,8.64
2023-05-24T00:16:26.933Z,8.65
2023-05-24T00:16:58.418Z,8.62
2023-05-24T00:17:30.197Z,8.63
2023-05-24T00:18:01.776Z,8.63
2023-05-24T00:18:33.277Z,8.62
2023-05-24T00:19:04.748Z,8.61
2023-05-24T00:19:38.229Z,8.61
2023-05-24T00:20:11.966Z,8.60
2023-05-24T00:20:44.215Z,8.58
2023-05-24T00:21:15.980Z,8.58
2023-05-24T00:21:50.815Z,8.57
2023-05-24T00:22:22.238Z,8.56
2023-05-24T00:22:53.708Z,8.54
2023-05-24T00:23:26.051Z,8.56
2023-05-24T00:23:57.812Z,8.53
2023-05-24T00:24:29.264Z,8.52
2023-05-24T00:25:00.714Z,8.54
2023-05-24T00:25:32.139Z,8.51
2023-05-24T00:26:04.524Z,8.53
2023-05-24T00:26:35.967Z,8.51
2023-05-24T00:27:07.698Z,8.49
2023-05-24T00:27:39.184Z,8.49
2023-05-24T00:28:10.811Z,8.50
2023-05-24T00:28:42.198Z,8.49
2023-05-24T00:29:13.720Z,8.50
2023-05-24T00:29:45.283Z,8.49
2023-05-24T00:30:16.728Z,8.49
2023-05-24T00:30:48.258Z,8.46
2023-05-24T00:31:19.682Z,8.48
2023-05-24T00:31:51.129Z,8.47
2023-05-24T00:32:22.870Z,8.47
2023-05-24T00:32:54.590Z,8.46
2023-05-24T00:33:27.878Z,8.46
2023-05-24T00:33:59.318Z,8.45
2023-05-24T00:34:30.870Z,8.43
2023-05-24T00:35:02.295Z,8.43
2023-05-24T00:35:33.869Z,8.41
2023-05-24T00:36:05.890Z,8.42
2023-05-24T00:36:38.121Z,8.40
2023-05-24T00:37:09.604Z,8.39
2023-05-24T00:37:45.104Z,8.36
2023-05-24T00:38:16.550Z,8.38
2023-05-24T00:38:48.002Z,8.37
2023-05-24T00:39:19.454Z,8.35
2023-05-24T00:39:50.921Z,8.37
2023-05-24T00:40:22.354Z,8.37
2023-05-24T00:40:56.394Z,8.36
2023-05-24T00:41:27.892Z,8.32
2023-05-24T00:41:59.855Z,8.34
2023-05-24T00:42:31.249Z,8.31
2023-05-24T00:43:02.707Z,8.34
2023-05-24T00:43:34.095Z,8.29
2023-05-24T00:44:05.558Z,8.31
2023-05-24T00:44:36.938Z,8.28
2023-05-24T00:45:08.870Z,8.30
2023-05-24T00:45:40.872Z,8.26
2023-05-24T00:46:16.247Z,8.26
2023-05-24T00:46:47.690Z,8.27
2023-05-24T00:47:19.210Z,8.26
2023-05-24T00:47:50.901Z,8.25
2023-05-24T00:48:23.710Z,8.26
2023-05-24T00:48:56.052Z,8.26
2023-05-24T00:49:28.020Z,8.26
2023-05-24T00:49:59.600Z,8.24
2023-05-24T00:50:31.163Z,8.23
2023-05-24T00:51:02.576Z,8.19
2023-05-24T00:51:35.093Z,8.21
2023-05-24T00:52:08.837Z,8.21
2023-05-24T00:52:43.565Z,8.21
2023-05-24T00:53:15.730Z,8.19
2023-05-24T00:53:48.684Z,8.19
2023-05-24T00:54:20.742Z,8.18
2023-05-24T00:54:52.258Z,8.17
2023-05-24T00:55:23.712Z,8.17
2023-05-24T00:55:55.279Z,8.14
2023-05-24T00:56:27.830Z,8.13
2023-05-24T00:56:59.423Z,8.12
2023-05-24T00:57:30.997Z,8.12
2023-05-24T00:58:03.277Z,8.13
2023-05-24T00:58:35.054Z,8.12
2023-05-24T00:59:06.632Z,8.13
2023-05-24T00:59:38.091Z,8.11
2023-05-24T01:00:11.260Z,8.12
2023-05-24T01:00:43.989Z,8.12
2023-05-24T01:01:15.434Z,8.11
2023-05-24T01:01:47.133Z,8.10
2023-05-24T01:02:19.157Z,8.11
2023-05-24T01:02:51.273Z,8.11
2023-05-24T01:03:22.997Z,8.09
2023-05-24T01:03:55.061Z,8.10
2023-05-24T01:04:27.982Z,8.12
2023-05-24T01:05:00.033Z,8.09
2023-05-24T01:05:31.641Z,8.08
2023-05-24T01:06:06.219Z,8.10
2023-05-24T01:07:04.183Z,8.11
2023-05-24T01:07:59.027Z,8.09
2023-05-24T01:08:43.912Z,8.08
2023-05-24T01:09:28.806Z,8.05
2023-05-24T01:10:09.145Z,8.05
2023-05-24T01:10:56.469Z,8.03
2023-05-24T01:11:59.838Z,8.01
2023-05-24T01:12:56.426Z,8.00
2023-05-24T01:13:35.271Z,7.98
2023-05-24T01:14:14.444Z,8.01
2023-05-24T01:15:13.342Z,7.98
2023-05-24T01:15:53.366Z,7.99
2023-05-24T01:16:46.812Z,7.98
2023-05-24T01:17:27.354Z,7.98
2023-05-24T01:18:05.883Z,7.98
2023-05-24T01:18:44.152Z,7.97
2023-05-24T01:19:56.614Z,7.97
2023-05-24T01:20:32.472Z,7.96
2023-05-24T01:21:12.924Z,7.97
2023-05-24T01:22:22.851Z,7.96
2023-05-24T01:23:16.446Z,7.94
2023-05-24T01:24:22.757Z,7.92
2023-05-24T01:25:19.335Z,7.92
2023-05-24T01:26:02.588Z,7.91
2023-05-24T01:27:09.698Z,7.91
2023-05-24T01:27:43.397Z,7.90
2023-05-24T01:28:17.564Z,7.88
2023-05-24T01:28:50.186Z,7.88
2023-05-24T01:29:22.668Z,7.88
2023-05-24T01:29:54.785Z,7.87
2023-05-24T01:30:28.870Z,7.87
2023-05-24T01:31:01.237Z,7.87
2023-05-24T01:31:34.194Z,7.86
2023-05-24T01:32:06.939Z,7.84
2023-05-24T01:32:38.970Z,7.86
2023-05-24T01:33:10.739Z,7.82
2023-05-24T01:33:42.975Z,7.84
2023-05-24T01:34:14.499Z,7.82
2023-05-24T01:34:45.979Z,7.84
2023-05-24T01:35:17.450Z,7.84
2023-05-24T01:35:48.887Z,7.83
2023-05-24T01:36:21.086Z,7.83
2023-05-24T01:36:52.658Z,7.83
2023-05-24T01:37:24.240Z,7.80
2023-05-24T01:37:55.691Z,7.81
2023-05-24T01:38:27.116Z,7.83
2023-05-24T01:38:58.690Z,7.83
2023-05-24T01:39:30.626Z,7.81
2023-05-24T01:40:02.534Z,7.80
2023-05-24T01:40:35.160Z,7.82
2023-05-24T01:41:23.556Z,7.82
2023-05-24T01:42:06.302Z,7.81
2023-05-24T01:42:40.793Z,7.80
2023-05-24T01:43:14.672Z,7.80
2023-05-24T01:43:56.209Z,7.80
2023-05-24T01:44:34.648Z,7.79
2023-05-24T01:45:33.024Z,7.78
2023-05-24T01:46:29.137Z,7.78
2023-05-24T01:47:31.842Z,7.78
2023-05-24T01:48:21.773Z,7.77
2023-05-24T01:49:17.837Z,7.77
2023-05-24T01:49:57.245Z,7.76
2023-05-24T01:50:34.135Z,7.76
2023-05-24T01:51:07.763Z,7.76
2023-05-24T01:51:49.820Z,7.75
2023-05-24T01:52:25.311Z,7.76
2023-05-24T01:53:02.336Z,7.73
2023-05-24T01:53:35.994Z,7.73
2023-05-24T01:54:07.932Z,7.75
2023-05-24T01:54:45.652Z,7.73
2023-05-24T01:55:18.624Z,7.75
2023-05-24T01:55:53.348Z,7.76
2023-05-24T01:56:27.987Z,7.75
2023-05-24T01:57:05.303Z,7.75
2023-05-24T01:57:38.962Z,7.78
2023-05-24T01:58:13.562Z,7.78
2023-05-24T01:58:47.305Z,7.77
2023-05-24T01:59:20.238Z,7.77
2023-05-24T01:59:52.881Z,7.79
2023-05-24T02:00:24.999Z,7.77
2023-05-24T02:00:57.344Z,7.80
2023-05-24T02:01:29.370Z,7.78
2023-05-24T02:02:01.590Z,7.81
2023-05-24T02:02:33.246Z,7.79
2023-05-24T02:03:05.412Z,7.82
2023-05-24T02:03:38.238Z,7.82
2023-05-24T02:04:09.735Z,7.83
2023-05-24T02:04:41.491Z,7.85
2023-05-24T02:05:12.928Z,7.82
2023-05-24T02:05:45.866Z,7.84
2023-05-24T02:06:17.352Z,7.88
2023-05-24T02:06:48.758Z,7.88
2023-05-24T02:07:20.173Z,7.91
2023-05-24T02:07:51.607Z,7.91
2023-05-24T02:08:23.301Z,7.93
2023-05-24T02:08:54.775Z,7.92
2023-05-24T02:09:26.176Z,7.95
2023-05-24T02:09:57.610Z,7.96
2023-05-24T02:10:29.020Z,7.92
2023-05-24T02:11:00.532Z,7.97
2023-05-24T02:11:32.018Z,7.97
2023-05-24T02:12:03.695Z,7.96
2023-05-24T02:12:35.074Z,7.97
2023-05-24T02:13:07.507Z,7.97
2023-05-24T02:13:39.075Z,7.98
2023-05-24T02:14:11.180Z,7.99
2023-05-24T02:14:44.162Z,7.99
2023-05-24T02:15:15.646Z,7.99
2023-05-24T02:15:47.806Z,8.00
2023-05-24T02:16:19.699Z,7.99
2023-05-24T02:16:51.148Z,8.01
2023-05-24T02:17:23.209Z,8.01
2023-05-24T02:17:55.376Z,8.02
2023-05-24T02:18:27.014Z,8.02
2023-05-24T02:18:58.528Z,8.03
2023-05-24T02:19:29.959Z,8.02
2023-05-24T02:20:01.842Z,8.06
2023-05-24T02:20:37.100Z,8.06
2023-05-24T02:21:09.000Z,8.08
2023-05-24T02:21:41.265Z,8.08
2023-05-24T02:22:13.013Z,8.08
2023-05-24T02:22:44.431Z,8.09
2023-05-24T02:23:15.930Z,8.09
2023-05-24T02:23:47.355Z,8.09
2023-05-24T02:24:18.858Z,8.11
2023-05-24T02:24:50.298Z,8.11
2023-05-24T02:25:21.851Z,8.10
2023-05-24T02:25:53.391Z,8.10
2023-05-24T02:26:24.866Z,8.08
2023-05-24T02:26:56.469Z,8.06
2023-05-24T02:27:27.924Z,8.07
2023-05-24T02:27:59.885Z,8.07
2023-05-24T02:28:32.482Z,8.07
2023-05-24T02:29:04.677Z,8.05
2023-05-24T02:29:36.211Z,8.07
2023-05-24T02:30:08.526Z,8.08
2023-05-24T02:30:40.137Z,8.07
2023-05-24T02:31:11.807Z,8.08
2023-05-24T02:31:43.338Z,8.09
2023-05-24T02:32:14.905Z,8.08
2023-05-24T02:32:46.791Z,8.07
2023-05-24T02:33:18.271Z,8.08
2023-05-24T02:33:49.694Z,8.07
2023-05-24T02:34:21.168Z,8.09
2023-05-24T02:34:52.683Z,8.08
2023-05-24T02:35:24.218Z,8.08
2023-05-24T02:35:56.536Z,8.08
2023-05-24T02:36:28.183Z,8.09
2023-05-24T02:36:59.635Z,8.08
2023-05-24T02:37:31.125Z,8.10
2023-05-24T02:38:06.563Z,8.08
2023-05-24T02:38:38.017Z,8.09
2023-05-24T02:39:09.755Z,8.07
2023-05-24T02:39:42.124Z,8.10
2023-05-24T02:40:13.602Z,8.11
2023-05-24T02:40:45.293Z,8.10
2023-05-24T02:41:18.243Z,8.12
2023-05-24T02:41:49.657Z,8.09
2023-05-24T02:42:21.296Z,8.10
2023-05-24T02:42:52.748Z,8.08
2023-05-24T02:43:24.224Z,8.08
2023-05-24T02:43:55.691Z,8.09
2023-05-24T02:44:27.202Z,8.08
2023-05-24T02:44:58.651Z,8.10
2023-05-24T02:45:30.051Z,8.10
2023-05-24T02:46:01.536Z,8.10
2023-05-24T02:46:33.163Z,8.09
2023-05-24T02:47:05.010Z,8.10
2023-05-24T02:47:36.503Z,8.10
2023-05-24T02:48:07.967Z,8.09
2023-05-24T02:48:39.490Z,8.07
2023-05-24T02:49:11.069Z,8.07
2023-05-24T02:49:42.447Z,8.07
2023-05-24T02:50:13.878Z,8.10
2023-05-24T02:50:45.457Z,8.10
2023-05-24T02:51:17.123Z,8.08
2023-05-24T02:51:48.513Z,8.11
2023-05-24T02:52:22.715Z,8.10
2023-05-24T02:52:54.133Z,8.08
2023-05-24T02:53:25.586Z,8.05
2023-05-24T02:53:57.051Z,8.05
2023-05-24T02:54:28.504Z,8.04
2023-05-24T02:54:59.935Z,8.07
2023-05-24T02:55:32.314Z,8.06
2023-05-24T02:56:03.846Z,8.06
2023-05-24T02:56:35.270Z,8.07
2023-05-24T02:57:06.790Z,8.08
2023-05-24T02:57:38.363Z,8.06
2023-05-24T02:58:09.780Z,8.07
2023-05-24T02:58:41.203Z,8.03
2023-05-24T02:59:12.749Z,8.03
2023-05-24T02:59:44.286Z,8.03
2023-05-24T03:00:16.216Z,8.04
2023-05-24T03:00:47.615Z,8.04
2023-05-24T03:01:19.776Z,8.04
2023-05-24T03:01:51.522Z,8.04
2023-05-24T03:02:23.116Z,8.03
2023-05-24T03:02:55.503Z,8.04
2023-05-24T03:03:27.103Z,8.01
2023-05-24T03:03:58.603Z,8.03
2023-05-24T03:04:30.382Z,8.02
2023-05-24T03:05:01.892Z,8.00
2023-05-24T03:05:33.342Z,7.99
2023-05-24T03:06:06.984Z,8.01
2023-05-24T03:06:38.424Z,7.99
2023-05-24T03:07:10.703Z,8.00
2023-05-24T03:07:42.330Z,8.00
2023-05-24T03:08:13.714Z,8.00
2023-05-24T03:08:45.151Z,7.99
2023-05-24T03:09:16.988Z,7.97
2023-05-24T03:09:48.405Z,7.97
2023-05-24T03:10:19.889Z,7.95
2023-05-24T03:10:51.283Z,7.95
2023-05-24T03:11:23.926Z,7.94
2023-05-24T03:11:55.551Z,7.95
2023-05-24T03:12:27.022Z,7.91
2023-05-24T03:12:58.711Z,7.92
2023-05-24T03:13:30.310Z,7.93
2023-05-24T03:14:01.885Z,7.93
2023-05-24T03:14:33.382Z,7.90
2023-05-24T03:15:05.391Z,7.88
2023-05-24T03:15:36.796Z,7.90
2023-05-24T03:16:08.537Z,7.88
2023-05-24T03:16:40.023Z,7.86
2023-05-24T03:17:11.467Z,7.87
2023-05-24T03:17:42.942Z,7.88
2023-05-24T03:18:14.465Z,7.87
2023-05-24T03:18:45.871Z,7.86
2023-05-24T03:19:17.842Z,7.85
2023-05-24T03:19:49.313Z,7.82
2023-05-24T03:20:21.237Z,7.84
2023-05-24T03:20:52.756Z,7.84
2023-05-24T03:21:25.105Z,7.85
2023-05-24T03:21:56.538Z,7.84
2023-05-24T03:22:28.023Z,7.84
2023-05-24T03:22:59.577Z,7.83
2023-05-24T03:23:31.091Z,7.82
2023-05-24T03:24:02.668Z,7.79
2023-05-24T03:24:34.282Z,7.79
2023-05-24T03:25:08.673Z,7.78
2023-05-24T03:25:40.466Z,7.82
2023-05-24T03:26:13.186Z,7.79
2023-05-24T03:26:44.981Z,7.83
2023-05-24T03:27:16.395Z,7.80
2023-05-24T03:27:47.819Z,7.81
2023-05-24T03:28:22.204Z,7.80
2023-05-24T03:28:54.393Z,7.80
2023-05-24T03:29:25.845Z,7.80
2023-05-24T03:29:57.323Z,7.79
2023-05-24T03:30:29.017Z,7.78
2023-05-24T03:31:00.894Z,7.78
2023-05-24T03:31:32.432Z,7.77
2023-05-24T03:32:04.423Z,7.78
2023-05-24T03:32:36.065Z,7.75
2023-05-24T03:33:07.603Z,7.77
2023-05-24T03:33:39.365Z,7.76
2023-05-24T03:34:10.744Z,7.75
2023-05-24T03:34:42.182Z,7.74
2023-05-24T03:35:13.840Z,7.73
2023-05-24T03:35:45.574Z,7.74
2023-05-24T03:36:16.962Z,7.73
2023-05-24T03:36:48.403Z,7.74
2023-05-24T03:37:19.878Z,7.73
2023-05-24T03:37:51.257Z,7.71
2023-05-24T03:38:22.695Z,7.72
2023-05-24T03:38:54.977Z,7.71
2023-05-24T03:39:26.397Z,7.73
2023-05-24T03:39:57.863Z,7.72
2023-05-24T03:40:32.357Z,7.72
2023-05-24T03:41:03.812Z,7.71
2023-05-24T03:41:35.429Z,7.73
2023-05-24T03:42:07.102Z,7.73
2023-05-24T03:42:38.734Z,7.73
2023-05-24T03:43:10.822Z,7.71
2023-05-24T03:43:42.257Z,7.72
2023-05-24T03:44:13.761Z,7.72
2023-05-24T03:44:45.277Z,7.71
2023-05-24T03:45:24.057Z,7.70
2023-05-24T03:46:02.263Z,7.70
2023-05-24T03:46:33.894Z,7.70
2023-05-24T03:47:05.493Z,7.70
2023-05-24T03:47:37.110Z,7.70
2023-05-24T03:48:08.583Z,7.68
2023-05-24T03:48:40.034Z,7.67
2023-05-24T03:49:11.494Z,7.66
2023-05-24T03:49:43.148Z,7.65
2023-05-24T03:50:14.782Z,7.69
2023-05-24T03:50:46.734Z,7.68
2023-05-24T03:51:18.354Z,7.69
2023-05-24T03:51:49.823Z,7.68
2023-05-24T03:52:21.296Z,7.68
2023-05-24T03:52:53.267Z,7.70
2023-05-24T03:53:24.688Z,7.70
2023-05-24T03:53:59.324Z,7.70
2023-05-24T03:54:30.764Z,7.70
2023-05-24T03:55:02.291Z,7.70
2023-05-24T03:55:33.802Z,7.69
2023-05-24T03:56:05.615Z,7.70
2023-05-24T03:56:37.451Z,7.70
2023-05-24T03:57:08.883Z,7.69
2023-05-24T03:57:41.909Z,7.67
2023-05-24T03:58:13.582Z,7.68
2023-05-24T03:58:45.032Z,7.70
2023-05-24T03:59:16.441Z,7.69
2023-05-24T03:59:47.854Z,7.69
2023-05-24T04:00:19.447Z,7.69
2023-05-24T04:00:50.976Z,7.68
2023-05-24T04:01:33.307Z,7.69
2023-05-24T04:02:05.997Z,7.69
2023-05-24T04:02:38.224Z,7.69
2023-05-24T04:03:09.796Z,7.69
2023-05-24T04:03:41.520Z,7.70
2023-05-24T04:04:13.304Z,7.67
2023-05-24T04:04:45.715Z,7.68
2023-05-24T04:05:17.249Z,7.69
2023-05-24T04:05:48.776Z,7.70
2023-05-24T04:06:20.280Z,7.69
2023-05-24T04:06:51.655Z,7.67
2023-05-24T04:07:24.452Z,7.67
2023-05-24T04:07:56.516Z,7.69
2023-05-24T04:08:28.044Z,7.71
2023-05-24T04:09:00.968Z,7.72
2023-05-24T04:09:32.416Z,7.69
2023-05-24T04:10:05.434Z,7.72
2023-05-24T04:10:36.872Z,7.71
2023-05-24T04:11:08.340Z,7.71
2023-05-24T04:11:39.751Z,7.69
2023-05-24T04:12:11.646Z,7.71
2023-05-24T04:12:43.075Z,7.70
2023-05-24T04:13:14.501Z,7.69
2023-05-24T04:13:45.956Z,7.71
2023-05-24T04:14:17.406Z,7.71
2023-05-24T04:14:48.786Z,7.70
2023-05-24T04:15:21.198Z,7.69
2023-05-24T04:15:52.643Z,7.71
2023-05-24T04:16:24.505Z,7.73
2023-05-24T04:16:57.372Z,7.72
2023-05-24T04:17:35.049Z,7.74
2023-05-24T04:18:06.838Z,7.76
2023-05-24T04:18:38.514Z,7.77
2023-05-24T04:19:10.008Z,7.75
2023-05-24T04:19:41.455Z,7.76
2023-05-24T04:20:13.633Z,7.77
2023-05-24T04:20:45.357Z,7.75
2023-05-24T04:21:17.087Z,7.79
2023-05-24T04:21:49.638Z,7.79
2023-05-24T04:22:21.332Z,7.80
2023-05-24T04:22:54.139Z,7.81
2023-05-24T04:23:25.693Z,7.81
2023-05-24T04:23:58.172Z,7.81
2023-05-24T04:24:29.689Z,7.83
2023-05-24T04:25:01.380Z,7.82
2023-05-24T04:25:33.639Z,7.83
2023-05-24T04:26:05.198Z,7.83
2023-05-24T04:26:37.845Z,7.85
2023-05-24T04:27:09.850Z,7.88
2023-05-24T04:27:41.332Z,7.86
2023-05-24T04:28:12.779Z,7.86
2023-05-24T04:28:45.506Z,7.88
2023-05-24T04:29:18.152Z,7.90
2023-05-24T04:29:49.613Z,7.89
2023-05-24T04:30:21.622Z,7.89
2023-05-24T04:30:53.775Z,7.93
2023-05-24T04:31:26.350Z,7.91
2023-05-24T04:32:00.777Z,7.91
2023-05-24T04:32:32.316Z,7.96
2023-05-24T04:33:04.117Z,7.96
2023-05-24T04:33:39.497Z,7.98
2023-05-24T04:34:13.218Z,7.98
2023-05-24T04:34:45.977Z,7.99
2023-05-24T04:35:18.228Z,8.01
2023-05-24T04:35:49.704Z,8.03
2023-05-24T04:36:22.966Z,8.02
2023-05-24T04:36:54.530Z,8.05
2023-05-24T04:37:25.953Z,8.04
2023-05-24T04:37:57.657Z,8.03
2023-05-24T04:38:34.425Z,8.07
2023-05-24T04:39:05.961Z,8.09
2023-05-24T04:39:37.306Z,8.09
2023-05-24T04:40:09.300Z,8.10
2023-05-24T04:40:41.547Z,8.10
2023-05-24T04:41:13.348Z,8.11
2023-05-24T04:41:45.551Z,8.12
2023-05-24T04:42:17.014Z,8.13
2023-05-24T04:42:48.835Z,8.15
2023-05-24T04:43:20.276Z,8.15
2023-05-24T04:43:51.685Z,8.17
2023-05-24T04:44:24.151Z,8.16
2023-05-24T04:44:55.648Z,8.20
2023-05-24T04:45:27.120Z,8.20
2023-05-24T04:45:58.796Z,8.22
2023-05-24T04:46:31.269Z,8.23
2023-05-24T04:47:03.920Z,8.23
2023-05-24T04:47:35.682Z,8.26
2023-05-24T04:48:07.170Z,8.26
2023-05-24T04:48:38.620Z,8.28
2023-05-24T04:49:10.027Z,8.28
2023-05-24T04:49:41.455Z,8.29
2023-05-24T04:50:12.896Z,8.32
2023-05-24T04:50:44.385Z,8.30
2023-05-24T04:51:16.152Z,8.35
2023-05-24T04:51:47.669Z,8.34
2023-05-24T04:52:19.075Z,8.35
2023-05-24T04:52:50.469Z,8.34
2023-05-24T04:53:23.152Z,8.40
2023-05-24T04:53:54.576Z,8.37
2023-05-24T04:54:26.054Z,8.40
2023-05-24T04:54:58.166Z,8.40
2023-05-24T04:55:29.580Z,8.43
2023-05-24T04:56:01.389Z,8.46
2023-05-24T04:56:32.876Z,8.47
2023-05-24T04:57:04.370Z,8.48
2023-05-24T04:57:35.826Z,8.47
2023-05-24T04:58:07.322Z,8.50
2023-05-24T04:58:39.483Z,8.51
2023-05-24T04:59:11.061Z,8.52
2023-05-24T04:59:42.644Z,8.54
2023-05-24T05:00:14.458Z,8.55
2023-05-24T05:00:45.931Z,8.57
2023-05-24T05:01:17.536Z,8.59
2023-05-24T05:01:49.094Z,8.60
2023-05-24T05:02:21.912Z,8.63
2023-05-24T05:02:53.491Z,8.64
2023-05-24T05:03:25.122Z,8.65
2023-05-24T05:03:56.776Z,8.67
2023-05-24T05:04:28.403Z,8.69
2023-05-24T05:04:59.909Z,8.69
2023-05-24T05:05:31.433Z,8.72
2023-05-24T05:06:02.851Z,8.73
2023-05-24T05:06:38.461Z,8.75
2023-05-24T05:07:10.122Z,8.77
2023-05-24T05:07:41.616Z,8.77
2023-05-24T05:08:14.043Z,8.79
2023-05-24T05:08:45.482Z,8.81
2023-05-24T05:09:17.273Z,8.82
2023-05-24T05:09:48.785Z,8.83
2023-05-24T05:10:22.399Z,8.84
2023-05-24T05:10:55.077Z,8.84
2023-05-24T05:11:27.785Z,8.85
2023-05-24T05:11:59.843Z,8.87
2023-05-24T05:12:31.281Z,8.84
2023-05-24T05:13:02.872Z,8.90
2023-05-24T05:13:34.403Z,8.91
2023-05-24T05:14:06.391Z,8.92
2023-05-24T05:14:37.790Z,8.94
2023-05-24T05:15:09.720Z,8.92
2023-05-24T05:15:42.791Z,8.97
2023-05-24T05:16:14.950Z,8.96
2023-05-24T05:16:46.731Z,8.99
2023-05-24T05:17:18.335Z,9.00
2023-05-24T05:17:50.553Z,9.00
2023-05-24T05:18:22.236Z,9.05
2023-05-24T05:18:53.693Z,9.07
2023-05-24T05:19:25.233Z,9.05
2023-05-24T05:19:56.822Z,9.06
2023-05-24T05:20:28.272Z,9.10
2023-05-24T05:20:59.716Z,9.10
2023-05-24T05:21:33.130Z,9.13
2023-05-24T05:22:04.727Z,9.15
2023-05-24T05:22:36.194Z,9.16
2023-05-24T05:23:07.682Z,9.17
2023-05-24T05:23:39.788Z,9.19
2023-05-24T05:24:11.506Z,9.20
2023-05-24T05:24:42.945Z,9.22
2023-05-24T05:25:14.758Z,9.24
2023-05-24T05:25:46.226Z,9.25
2023-05-24T05:26:17.860Z,9.25
2023-05-24T05:26:49.244Z,9.28
2023-05-24T05:27:20.728Z,9.28
2023-05-24T05:27:52.230Z,9.30
2023-05-24T05:28:23.693Z,9.33
2023-05-24T05:28:55.358Z,9.31
2023-05-24T05:29:26.887Z,9.36
2023-05-24T05:29:58.375Z,9.36
2023-05-24T05:30:29.871Z,9.39
2023-05-24T05:31:01.344Z,9.40
2023-05-24T05:31:32.907Z,9.39
2023-05-24T05:32:04.581Z,9.40
2023-05-24T05:32:37.021Z,9.48
2023-05-24T05:33:08.650Z,9.46
2023-05-24T05:33:40.248Z,9.50
2023-05-24T05:34:11.759Z,9.51
2023-05-24T05:34:43.268Z,9.52
2023-05-24T05:35:14.730Z,9.54
2023-05-24T05:35:46.220Z,9.53
2023-05-24T05:36:17.975Z,9.56
2023-05-24T05:36:49.594Z,9.57
2023-05-24T05:37:21.072Z,9.58
2023-05-24T05:37:52.498Z,9.58
2023-05-24T05:38:23.997Z,9.62
2023-05-24T05:38:55.544Z,9.64
2023-05-24T05:39:27.044Z,9.65
2023-05-24T05:39:58.613Z,9.64
2023-05-24T05:40:30.053Z,9.65
2023-05-24T05:41:01.511Z,9.66
2023-05-24T05:41:32.876Z,9.70
2023-05-24T05:42:04.597Z,9.72
2023-05-24T05:42:36.040Z,9.74
2023-05-24T05:43:09.106Z,9.77
2023-05-24T05:43:40.631Z,9.79
2023-05-24T05:44:12.882Z,9.79
2023-05-24T05:44:44.333Z,9.81
2023-05-24T05:45:16.748Z,9.82
2023-05-24T05:45:48.263Z,9.84
2023-05-24T05:46:21.444Z,9.85
2023-05-24T05:46:52.845Z,9.86
2023-05-24T05:47:24.301Z,9.89
2023-05-24T05:47:55.912Z,9.90
2023-05-24T05:48:27.559Z,9.91
2023-05-24T05:48:58.992Z,9.93
2023-05-24T05:49:31.672Z,9.96
2023-05-24T05:50:03.167Z,9.98
2023-05-24T05:50:34.608Z,9.99
2023-05-24T05:51:06.121Z,10.02
2023-05-24T05:51:38.751Z,10.03
2023-05-24T05:52:10.150Z,10.04
2023-05-24T05:52:42.046Z,10.07
2023-05-24T05:53:13.512Z,10.06
2023-05-24T05:53:44.948Z,10.09
2023-05-24T05:54:18.403Z,10.09
2023-05-24T05:54:49.865Z,10.11
2023-05-24T05:55:21.462Z,10.12
2023-05-24T05:55:52.955Z,10.15
2023-05-24T05:56:24.450Z,10.16
2023-05-24T05:56:55.864Z,10.17
2023-05-24T05:57:27.306Z,10.17
2023-05-24T05:57:58.749Z,10.19
2023-05-24T05:58:30.189Z,10.21
2023-05-24T05:59:01.578Z,10.21
2023-05-24T05:59:35.922Z,10.24
2023-05-24T06:00:07.964Z,10.26
2023-05-24T06:00:40.940Z,10.29
2023-05-24T06:01:12.564Z,10.27
2023-05-24T06:01:48.985Z,10.30
2023-05-24T06:02:22.567Z,10.30
2023-05-24T06:02:54.065Z,10.34
2023-05-24T06:03:25.712Z,10.34
2023-05-24T06:03:57.359Z,10.38
2023-05-24T06:04:28.838Z,10.40
2023-05-24T06:05:00.447Z,10.42
2023-05-24T06:05:31.931Z,10.43
2023-05-24T06:06:03.365Z,10.45
2023-05-24T06:06:34.829Z,10.48
2023-05-24T06:07:06.226Z,10.49
2023-05-24T06:07:38.754Z,10.51
2023-05-24T06:08:10.313Z,10.53
2023-05-24T06:08:41.827Z,10.53
2023-05-24T06:09:13.307Z,10.57
2023-05-24T06:09:44.843Z,10.59
2023-05-24T06:10:16.419Z,10.60
2023-05-24T06:10:48.286Z,10.62
2023-05-24T06:11:21.077Z,10.64
2023-05-24T06:11:52.560Z,10.66
2023-05-24T06:12:24.003Z,10.68
2023-05-24T06:12:55.535Z,10.70
2023-05-24T06:13:28.255Z,10.69
2023-05-24T06:13:59.671Z,10.73
2023-05-24T06:14:32.508Z,10.73
2023-05-24T06:15:05.201Z,10.76
2023-05-24T06:15:37.646Z,10.76
2023-05-24T06:16:09.933Z,10.77
2023-05-24T06:16:43.540Z,10.77
2023-05-24T06:17:15.102Z,10.79
2023-05-24T06:17:48.116Z,10.78
2023-05-24T06:18:19.766Z,10.81
2023-05-24T06:19:04.730Z,10.83
2023-05-24T06:19:37.193Z,10.84
2023-05-24T06:20:12.029Z,10.87
2023-05-24T06:20:44.990Z,10.87
2023-05-24T06:21:17.454Z,10.91
2023-05-24T06:21:50.487Z,10.91
2023-05-24T06:22:22.039Z,10.93
2023-05-24T06:22:53.666Z,10.94
2023-05-24T06:23:25.168Z,10.97
2023-05-24T06:23:58.154Z,10.97
2023-05-24T06:24:29.667Z,10.98
2023-05-24T06:25:01.064Z,11.01
2023-05-24T06:25:32.930Z,11.05
2023-05-24T06:26:04.765Z,11.05
2023-05-24T06:26:37.388Z,11.08
2023-05-24T06:27:08.800Z,11.11
2023-05-24T06:27:40.794Z,11.11
2023-05-24T06:28:12.196Z,11.14
2023-05-24T06:28:43.765Z,11.15
2023-05-24T06:29:15.413Z,11.17
2023-05-24T06:29:46.889Z,11.20
2023-05-24T06:30:18.715Z,11.23
2023-05-24T06:30:50.623Z,11.20
2023-05-24T06:31:22.145Z,11.22
2023-05-24T06:31:53.607Z,11.21
2023-05-24T06:32:25.151Z,11.21
2023-05-24T06:32:56.859Z,11.20
2023-05-24T06:33:28.224Z,11.17
2023-05-24T06:34:03.999Z,11.16
2023-05-24T06:34:36.140Z,11.12
2023-05-24T06:35:08.797Z,11.13
2023-05-24T06:35:40.402Z,11.12
2023-05-24T06:36:11.846Z,11.14
2023-05-24T06:36:43.930Z,11.14
2023-05-24T06:37:15.685Z,11.16
2023-05-24T06:37:47.130Z,11.17
2023-05-24T06:38:18.648Z,11.18
2023-05-24T06:38:49.993Z,11.21
2023-05-24T06:39:21.505Z,11.25
2023-05-24T06:39:52.978Z,11.26
2023-05-24T06:40:24.410Z,11.32
2023-05-24T06:40:55.973Z,11.34
2023-05-24T06:41:28.234Z,11.36
2023-05-24T06:41:59.690Z,11.35
2023-05-24T06:42:31.099Z,11.39
2023-05-24T06:43:02.521Z,11.39
2023-05-24T06:43:34.542Z,11.43
2023-05-24T06:44:06.243Z,11.44
2023-05-24T06:44:39.672Z,11.43
2023-05-24T06:45:11.427Z,11.44
2023-05-24T06:45:43.169Z,11.47
2023-05-24T06:46:14.603Z,11.48
2023-05-24T06:46:46.406Z,11.47
2023-05-24T06:47:18.001Z,11.52
2023-05-24T06:47:49.787Z,11.56
2023-05-24T06:48:21.742Z,11.60
2023-05-24T06:48:53.269Z,11.61
2023-05-24T06:49:24.742Z,11.65
2023-05-24T06:49:56.991Z,11.68
2023-05-24T06:50:28.508Z,11.72
2023-05-24T06:50:59.909Z,11.73
2023-05-24T06:51:33.381Z,11.77
2023-05-24T06:52:05.263Z,11.82
2023-05-24T06:52:37.125Z,11.82
2023-05-24T06:53:08.617Z,11.86
2023-05-24T06:53:40.626Z,11.87
2023-05-24T06:54:12.026Z,11.90
2023-05-24T06:54:43.459Z,11.94
2023-05-24T06:55:15.635Z,11.95
2023-05-24T06:55:47.114Z,11.95
2023-05-24T06:56:18.689Z,11.96
2023-05-24T06:56:50.091Z,11.97
2023-05-24T06:57:22.122Z,12.01
2023-05-24T06:57:53.581Z,12.03
2023-05-24T06:58:25.046Z,12.02
2023-05-24T06:58:56.885Z,12.04
2023-05-24T06:59:28.432Z,12.04
2023-05-24T06:59:59.869Z,12.00
2023-05-24T07:00:31.277Z,12.00
2023-05-24T07:01:04.746Z,11.96
2023-05-24T07:01:39.665Z,11.97
2023-05-24T07:02:11.242Z,11.95
2023-05-24T07:02:42.772Z,11.92
2023-05-24T07:03:14.367Z,11.91
2023-05-24T07:03:46.055Z,11.95
2023-05-24T07:04:17.851Z,11.96
2023-05-24T07:04:49.410Z,12.01
2023-05-24T07:05:22.226Z,12.06
2023-05-24T07:05:53.723Z,12.14
2023-05-24T07:06:25.161Z,12.21
2023-05-24T07:06:57.474Z,12.26
2023-05-24T07:07:28.890Z,12.34
2023-05-24T07:08:00.318Z,12.37
2023-05-24T07:08:31.776Z,12.38
2023-05-24T07:09:04.436Z,12.40
2023-05-24T07:09:36.250Z,12.39
2023-05-24T07:10:08.960Z,12.38
2023-05-24T07:10:41.140Z,12.37
2023-05-24T07:11:12.975Z,12.35
2023-05-24T07:11:44.399Z,12.33
2023-05-24T07:12:16.015Z,12.33
2023-05-24T07:12:47.491Z,12.32
2023-05-24T07:13:18.960Z,12.32
2023-05-24T07:13:50.444Z,12.32
2023-05-24T07:14:23.162Z,12.32